Time;durP1;ratioP1;P1;durP2;ratioP2;P2;SDS_P1;SDS_P2;PMS_P1;PMS_P2;Temp;Humidity;BMP_temperature;BMP_pressure;BME280_temperature;BME280_humidity;BME280_pressure;Samples;Min_cycle;Max_cycle;Signal;HPM_P1;HPM_P2
2023/06/07 00:00:36;;;;;;;4.27;3.77;;;;;;;;;;5058490;28;20400;-73
2023/06/07 00:03:09;;;;;;;3.77;3.37;;;;;;;;;;5057972;28;20432;-73
2023/06/07 00:05:36;;;;;;;5.80;4.03;;;;;;;;;;5058411;28;20443;-73
2023/06/07 00:08:02;;;;;;;6.37;3.93;;;;;;;;;;5058449;28;20438;-73
2023/06/07 00:10:28;;;;;;;4.57;3.70;;;;;;;;;;5058634;28;20408;-73
2023/06/07 00:12:54;;;;;;;5.33;4.20;;;;;;;;;;5057091;28;20833;-73
2023/06/07 00:15:20;;;;;;;5.90;3.80;;;;;;;;;;5058377;28;20502;-73
2023/06/07 00:17:47;;;;;;;4.17;3.77;;;;;;;;;;5057825;28;20375;-73
2023/06/07 00:20:14;;;;;;;4.40;3.80;;;;;;;;;;5057735;28;20407;-73
2023/06/07 00:22:40;;;;;;;6.70;4.40;;;;;;;;;;5058364;28;20412;-72
2023/06/07 00:25:08;;;;;;;5.63;4.60;;;;;;;;;;5057925;28;20404;-73
2023/06/07 00:27:34;;;;;;;4.70;4.13;;;;;;;;;;5058365;28;20443;-72
2023/06/07 00:30:02;;;;;;;4.57;4.17;;;;;;;;;;5058100;28;20749;-73
2023/06/07 00:32:28;;;;;;;10.37;4.70;;;;;;;;;;5057787;28;20461;-72
2023/06/07 00:34:54;;;;;;;4.90;3.90;;;;;;;;;;5058318;28;20400;-73
2023/06/07 00:37:20;;;;;;;7.13;4.20;;;;;;;;;;5058443;28;20391;-72
2023/06/07 00:39:46;;;;;;;6.43;4.73;;;;;;;;;;5058635;28;20450;-72
2023/06/07 00:42:12;;;;;;;5.90;4.37;;;;;;;;;;5057921;28;20817;-72
2023/06/07 00:44:38;;;;;;;6.90;5.20;;;;;;;;;;5056682;28;20424;-72
2023/06/07 00:47:04;;;;;;;7.50;5.37;;;;;;;;;;5057711;28;20500;-73
2023/06/07 00:49:30;;;;;;;5.77;5.10;;;;;;;;;;5058302;28;20585;-73
2023/06/07 00:51:57;;;;;;;9.00;5.83;;;;;;;;;;5058129;28;20449;-73
2023/06/07 00:54:23;;;;;;;5.53;5.03;;;;;;;;;;5058512;28;20428;-73
2023/06/07 00:56:50;;;;;;;7.10;5.63;;;;;;;;;;5057259;28;20370;-73
2023/06/07 00:59:19;;;;;;;7.20;5.60;;;;;;;;;;5057746;28;20418;-73
2023/06/07 01:01:47;;;;;;;12.23;6.30;;;;;;;;;;5057788;28;20423;-73
2023/06/07 01:04:13;;;;;;;7.43;5.67;;;;;;;;;;5057873;28;20776;-73
2023/06/07 01:06:39;;;;;;;7.60;5.63;;;;;;;;;;5057775;28;20375;-73
2023/06/07 01:09:06;;;;;;;8.50;6.10;;;;;;;;;;5057023;28;20416;-73
2023/06/07 01:11:32;;;;;;;9.77;6.40;;;;;;;;;;5057835;28;20390;-73
2023/06/07 01:13:58;;;;;;;7.30;5.90;;;;;;;;;;5057239;28;20378;-73
2023/06/07 01:16:25;;;;;;;8.10;6.40;;;;;;;;;;5057377;28;20461;-73
2023/06/07 01:18:51;;;;;;;10.50;7.03;;;;;;;;;;5057533;28;20416;-72
2023/06/07 01:21:19;;;;;;;9.40;5.83;;;;;;;;;;5056885;28;20387;-73
2023/06/07 01:23:45;;;;;;;7.57;6.77;;;;;;;;;;5057278;28;20852;-73
2023/06/07 01:26:12;;;;;;;8.00;5.90;;;;;;;;;;5057144;28;20400;-72
2023/06/07 01:28:41;;;;;;;8.10;6.60;;;;;;;;;;5056598;28;20378;-73
2023/06/07 01:31:07;;;;;;;6.63;5.57;;;;;;;;;;5057074;28;20495;-73
2023/06/07 01:33:34;;;;;;;8.07;6.53;;;;;;;;;;5056977;28;20466;-73
2023/06/07 01:36:00;;;;;;;6.80;5.93;;;;;;;;;;5057394;28;20499;-73
2023/06/07 01:38:27;;;;;;;8.67;7.40;;;;;;;;;;5056662;28;20404;-73
2023/06/07 01:40:54;;;;;;;7.90;6.80;;;;;;;;;;5056649;28;20434;-72
2023/06/07 01:43:21;;;;;;;8.03;7.27;;;;;;;;;;5056528;28;20379;-72
2023/06/07 01:45:47;;;;;;;12.53;7.03;;;;;;;;;;5057039;28;20396;-72
2023/06/07 01:48:15;;;;;;;10.70;6.40;;;;;;;;;;5056507;28;20390;-73
2023/06/07 01:50:41;;;;;;;10.37;7.30;;;;;;;;;;5057182;28;20771;-73
2023/06/07 01:53:07;;;;;;;9.30;7.77;;;;;;;;;;5056643;28;20459;-73
2023/06/07 01:55:33;;;;;;;8.50;6.17;;;;;;;;;;5057205;28;20491;-73
2023/06/07 01:57:59;;;;;;;11.47;7.03;;;;;;;;;;5056313;28;20742;-73
2023/06/07 02:00:43;;;;;;;13.07;6.47;;;;;;;;;;5057010;28;20408;-73
2023/06/07 02:03:18;;;;;;;11.43;6.40;;;;;;;;;;5056711;28;20884;-73
2023/06/07 02:05:53;;;;;;;6.70;5.53;;;;;;;;;;5056331;28;20446;-73
2023/06/07 02:08:30;;;;;;;12.83;6.70;;;;;;;;;;5056627;28;20418;-73
2023/06/07 02:10:57;;;;;;;7.60;6.50;;;;;;;;;;5056844;28;20374;-73
2023/06/07 02:13:23;;;;;;;8.90;6.27;;;;;;;;;;5056224;28;20514;-73
2023/06/07 02:15:50;;;;;;;8.60;6.80;;;;;;;;;;5055734;28;20882;-73
2023/06/07 02:18:19;;;;;;;9.43;7.30;;;;;;;;;;5056150;28;20778;-73
2023/06/07 02:20:45;;;;;;;9.30;6.57;;;;;;;;;;5056527;28;20503;-73
2023/06/07 02:23:11;;;;;;;9.00;7.00;;;;;;;;;;5056604;28;20381;-73
2023/06/07 02:25:38;;;;;;;11.97;7.10;;;;;;;;;;5056678;28;20431;-73
2023/06/07 02:28:04;;;;;;;8.40;7.30;;;;;;;;;;5056152;28;20395;-73
2023/06/07 02:30:30;;;;;;;10.43;7.00;;;;;;;;;;5056398;28;20419;-73
2023/06/07 02:32:56;;;;;;;8.70;6.53;;;;;;;;;;5055865;28;20527;-73
2023/06/07 02:35:23;;;;;;;8.83;7.77;;;;;;;;;;5056074;28;20506;-73
2023/06/07 02:37:49;;;;;;;8.87;7.20;;;;;;;;;;5056384;28;20457;-73
2023/06/07 02:40:15;;;;;;;8.90;7.10;;;;;;;;;;5056256;28;20390;-73
2023/06/07 02:42:45;;;;;;;7.17;6.00;;;;;;;;;;5055948;28;20404;-73
2023/06/07 02:45:12;;;;;;;9.20;6.33;;;;;;;;;;5055744;28;20420;-73
2023/06/07 02:47:38;;;;;;;14.10;7.20;;;;;;;;;;5056576;28;20447;-73
2023/06/07 02:50:06;;;;;;;9.23;7.23;;;;;;;;;;5056262;28;20408;-73
2023/06/07 02:52:33;;;;;;;9.50;7.20;;;;;;;;;;5056040;28;20475;-73
2023/06/07 02:54:59;;;;;;;10.50;7.43;;;;;;;;;;5058942;28;20411;-73
2023/06/07 02:57:25;;;;;;;10.10;7.87;;;;;;;;;;5059975;28;20408;-73
2023/06/07 02:59:53;;;;;;;13.13;7.63;;;;;;;;;;5060151;28;20382;-73
2023/06/07 03:02:19;;;;;;;13.97;7.70;;;;;;;;;;5059891;28;20444;-73
2023/06/07 03:04:46;;;;;;;10.77;7.10;;;;;;;;;;5058509;28;20394;-73
2023/06/07 03:07:12;;;;;;;10.97;8.00;;;;;;;;;;5059791;28;20462;-73
2023/06/07 03:09:38;;;;;;;11.00;7.20;;;;;;;;;;5060463;28;20403;-73
2023/06/07 03:12:04;;;;;;;11.47;7.30;;;;;;;;;;5060136;28;20464;-74
2023/06/07 03:14:30;;;;;;;10.37;7.40;;;;;;;;;;5059596;28;20499;-73
2023/06/07 03:16:56;;;;;;;10.60;9.27;;;;;;;;;;5059878;28;20422;-73
2023/06/07 03:19:22;;;;;;;11.97;9.20;;;;;;;;;;5059422;28;20796;-73
2023/06/07 03:21:50;;;;;;;15.23;9.00;;;;;;;;;;5059798;28;20497;-73
2023/06/07 03:24:16;;;;;;;10.60;8.40;;;;;;;;;;5059710;28;20404;-73
2023/06/07 03:26:42;;;;;;;21.87;10.53;;;;;;;;;;5058916;28;20398;-73
2023/06/07 03:29:09;;;;;;;13.90;8.03;;;;;;;;;;5059093;28;20761;-73
2023/06/07 03:31:35;;;;;;;16.80;8.63;;;;;;;;;;5058717;28;20554;-73
2023/06/07 03:34:01;;;;;;;8.53;7.60;;;;;;;;;;5059617;28;20379;-73
2023/06/07 03:36:29;;;;;;;13.73;8.30;;;;;;;;;;5059694;28;20774;-73
2023/06/07 03:38:58;;;;;;;11.07;8.37;;;;;;;;;;5059643;28;20416;-73
2023/06/07 03:41:25;;;;;;;12.20;8.20;;;;;;;;;;5059123;28;20508;-73
2023/06/07 03:43:51;;;;;;;16.43;9.03;;;;;;;;;;5059237;28;20435;-73
2023/06/07 03:46:17;;;;;;;9.97;8.53;;;;;;;;;;5059031;28;20908;-72
2023/06/07 03:48:43;;;;;;;16.03;8.33;;;;;;;;;;5059166;28;20411;-73
2023/06/07 03:51:09;;;;;;;11.67;7.80;;;;;;;;;;5059174;28;20520;-73
2023/06/07 03:53:36;;;;;;;9.50;7.50;;;;;;;;;;5059067;28;20459;-73
2023/06/07 03:56:02;;;;;;;13.70;8.13;;;;;;;;;;5059444;28;20375;-73
2023/06/07 03:58:28;;;;;;;12.17;7.80;;;;;;;;;;5059034;28;20408;-73
2023/06/07 04:00:54;;;;;;;14.10;8.10;;;;;;;;;;5058213;28;20442;-72
2023/06/07 04:03:24;;;;;;;13.70;7.83;;;;;;;;;;5058869;28;20419;-73
2023/06/07 04:05:50;;;;;;;14.83;8.10;;;;;;;;;;5059061;28;20902;-73
2023/06/07 04:08:16;;;;;;;10.63;7.70;;;;;;;;;;5058571;28;20443;-73
2023/06/07 04:10:42;;;;;;;11.97;8.57;;;;;;;;;;5058734;28;20394;-73
2023/06/07 04:13:08;;;;;;;12.00;7.53;;;;;;;;;;5058206;28;20828;-73
2023/06/07 04:15:34;;;;;;;10.33;7.33;;;;;;;;;;5059100;28;20425;-73
2023/06/07 04:18:00;;;;;;;22.33;8.80;;;;;;;;;;5058786;28;20874;-73
2023/06/07 04:20:27;;;;;;;11.87;7.63;;;;;;;;;;5059350;28;20908;-73
2023/06/07 04:22:53;;;;;;;14.80;8.27;;;;;;;;;;5058793;28;20389;-73
2023/06/07 04:25:22;;;;;;;11.60;8.87;;;;;;;;;;5058666;28;20400;-73
2023/06/07 04:27:49;;;;;;;12.80;8.20;;;;;;;;;;5058370;28;20871;-73
2023/06/07 04:30:18;;;;;;;11.40;7.80;;;;;;;;;;5058533;28;20450;-73
2023/06/07 04:32:47;;;;;;;8.80;6.70;;;;;;;;;;5058147;28;20995;-72
2023/06/07 04:35:14;;;;;;;13.40;6.73;;;;;;;;;;5058639;28;20415;-73
2023/06/07 04:37:45;;;;;;;9.07;7.63;;;;;;;;;;5058696;28;20415;-73
2023/06/07 04:40:13;;;;;;;13.67;8.40;;;;;;;;;;5058340;28;20388;-73
2023/06/07 04:42:40;;;;;;;13.80;7.83;;;;;;;;;;5058021;28;20382;-73
2023/06/07 04:45:08;;;;;;;11.83;6.83;;;;;;;;;;5058622;28;20419;-73
2023/06/07 04:47:34;;;;;;;10.87;7.87;;;;;;;;;;5058355;28;20400;-73
2023/06/07 04:50:00;;;;;;;14.43;7.77;;;;;;;;;;5058317;28;20443;-72
2023/06/07 04:52:28;;;;;;;8.73;7.40;;;;;;;;;;5056999;28;20468;-72
2023/06/07 04:54:56;;;;;;;10.97;7.47;;;;;;;;;;5058111;28;20503;-73
2023/06/07 04:57:23;;;;;;;13.87;7.57;;;;;;;;;;5057838;28;20407;-73
2023/06/07 04:59:51;;;;;;;12.47;7.60;;;;;;;;;;5058150;28;20408;-72
2023/06/07 05:02:17;;;;;;;13.13;7.20;;;;;;;;;;5057853;28;20847;-72
2023/06/07 05:04:44;;;;;;;10.13;7.23;;;;;;;;;;5057882;28;20405;-72
2023/06/07 05:07:11;;;;;;;13.03;7.50;;;;;;;;;;5057341;28;20408;-73
2023/06/07 05:09:37;;;;;;;12.30;7.87;;;;;;;;;;5057750;28;20404;-73
2023/06/07 05:12:03;;;;;;;9.60;7.03;;;;;;;;;;5057309;28;20490;-73
2023/06/07 05:14:29;;;;;;;16.97;8.80;;;;;;;;;;5057551;28;20431;-72
2023/06/07 05:16:55;;;;;;;9.40;6.57;;;;;;;;;;5056924;28;20387;-72
2023/06/07 05:19:21;;;;;;;10.57;7.00;;;;;;;;;;5057088;28;20864;-72
2023/06/07 05:21:47;;;;;;;12.30;7.73;;;;;;;;;;5056252;28;20390;-72
2023/06/07 05:24:13;;;;;;;14.07;7.30;;;;;;;;;;5057017;28;20493;-72
2023/06/07 05:26:39;;;;;;;10.20;7.13;;;;;;;;;;5057864;28;20416;-72
2023/06/07 05:29:05;;;;;;;11.93;7.83;;;;;;;;;;5057713;28;20419;-72
2023/06/07 05:31:31;;;;;;;12.40;7.70;;;;;;;;;;5056804;28;20418;-72
2023/06/07 05:33:57;;;;;;;12.33;7.57;;;;;;;;;;5056977;28;20459;-73
2023/06/07 05:36:23;;;;;;;17.33;7.40;;;;;;;;;;5056154;28;20385;-72
2023/06/07 05:38:49;;;;;;;16.20;7.97;;;;;;;;;;5056381;28;20419;-72
2023/06/07 05:41:15;;;;;;;11.57;6.93;;;;;;;;;;5056907;28;20400;-73
2023/06/07 05:43:42;;;;;;;13.40;7.53;;;;;;;;;;5057632;28;20400;-72
2023/06/07 05:46:08;;;;;;;13.20;7.30;;;;;;;;;;5057049;28;20379;-72
2023/06/07 05:48:34;;;;;;;10.80;8.17;;;;;;;;;;5056815;28;20407;-72
2023/06/07 05:51:00;;;;;;;14.33;7.43;;;;;;;;;;5056783;28;20770;-72
2023/06/07 05:53:26;;;;;;;8.57;6.83;;;;;;;;;;5056642;28;20481;-73
2023/06/07 05:55:53;;;;;;;12.60;7.80;;;;;;;;;;5057036;28;20385;-72
2023/06/07 05:58:19;;;;;;;9.70;7.20;;;;;;;;;;5056923;28;20404;-73
2023/06/07 06:00:47;;;;;;;15.13;8.37;;;;;;;;;;5056776;28;20816;-72
2023/06/07 06:03:16;;;;;;;15.57;7.60;;;;;;;;;;5056353;28;20941;-73
2023/06/07 06:05:42;;;;;;;11.10;7.17;;;;;;;;;;5056639;28;20444;-72
2023/06/07 06:08:08;;;;;;;11.77;6.47;;;;;;;;;;5056590;28;20404;-72
2023/06/07 06:10:34;;;;;;;9.47;6.43;;;;;;;;;;5056533;28;20400;-72
2023/06/07 06:13:00;;;;;;;12.50;7.10;;;;;;;;;;5056296;28;20502;-72
2023/06/07 06:15:26;;;;;;;14.63;7.13;;;;;;;;;;5056039;28;20412;-72
2023/06/07 06:17:54;;;;;;;10.37;7.50;;;;;;;;;;5056347;28;20466;-72
2023/06/07 06:20:20;;;;;;;14.73;7.50;;;;;;;;;;5056105;28;20407;-72
2023/06/07 06:22:46;;;;;;;13.03;7.33;;;;;;;;;;5056791;28;20470;-71
2023/06/07 06:25:13;;;;;;;10.00;6.47;;;;;;;;;;5057012;28;20408;-72
2023/06/07 06:27:40;;;;;;;12.80;6.90;;;;;;;;;;5056603;28;20404;-72
2023/06/07 06:30:07;;;;;;;10.77;7.97;;;;;;;;;;5056523;28;20387;-71
2023/06/07 06:32:33;;;;;;;11.27;8.00;;;;;;;;;;5056134;28;20602;-72
2023/06/07 06:34:59;;;;;;;16.00;8.53;;;;;;;;;;5056431;28;20407;-72
2023/06/07 06:37:25;;;;;;;9.67;7.10;;;;;;;;;;5056275;28;20808;-72
2023/06/07 06:39:52;;;;;;;17.60;8.47;;;;;;;;;;5056514;28;20454;-72
2023/06/07 06:42:18;;;;;;;9.47;6.70;;;;;;;;;;5056224;28;20544;-73
2023/06/07 06:44:44;;;;;;;17.53;8.90;;;;;;;;;;5056053;28;20462;-72
2023/06/07 06:47:10;;;;;;;15.73;8.30;;;;;;;;;;5056389;28;20538;-72
2023/06/07 06:49:36;;;;;;;16.90;9.23;;;;;;;;;;5056024;28;20478;-72
2023/06/07 06:52:02;;;;;;;16.87;7.50;;;;;;;;;;5055777;28;20439;-72
2023/06/07 06:54:28;;;;;;;10.63;7.77;;;;;;;;;;5055631;28;20440;-72
2023/06/07 06:56:54;;;;;;;9.17;7.60;;;;;;;;;;5056702;28;20400;-72
2023/06/07 06:59:20;;;;;;;13.67;7.20;;;;;;;;;;5056076;28;20382;-73
2023/06/07 07:01:47;;;;;;;16.60;7.50;;;;;;;;;;5056132;28;20503;-72
2023/06/07 07:04:14;;;;;;;15.00;8.37;;;;;;;;;;5056132;28;20423;-72
2023/06/07 07:06:40;;;;;;;14.63;7.40;;;;;;;;;;5056128;28;20408;-72
2023/06/07 07:09:07;;;;;;;9.50;7.60;;;;;;;;;;5055801;28;20925;-72
2023/06/07 07:11:33;;;;;;;13.87;7.63;;;;;;;;;;5055751;28;20435;-72
2023/06/07 07:13:59;;;;;;;11.40;7.63;;;;;;;;;;5054805;28;20467;-72
2023/06/07 07:16:25;;;;;;;12.23;7.83;;;;;;;;;;5055950;28;20400;-72
2023/06/07 07:18:51;;;;;;;9.53;7.20;;;;;;;;;;5055822;28;20443;-73
2023/06/07 07:21:17;;;;;;;17.40;7.70;;;;;;;;;;5055974;28;20771;-75
2023/06/07 07:23:43;;;;;;;16.57;7.17;;;;;;;;;;5056228;28;20408;-72
2023/06/07 07:26:09;;;;;;;10.73;8.40;;;;;;;;;;5055276;28;20841;-72
2023/06/07 07:28:35;;;;;;;10.27;7.30;;;;;;;;;;5054776;28;20415;-73
2023/06/07 07:31:01;;;;;;;12.50;8.07;;;;;;;;;;5055565;28;20420;-73
2023/06/07 07:33:27;;;;;;;14.20;8.97;;;;;;;;;;5055182;28;20591;-73
2023/06/07 07:35:53;;;;;;;12.90;8.07;;;;;;;;;;5055791;28;20545;-74
2023/06/07 07:38:19;;;;;;;13.30;7.97;;;;;;;;;;5055329;28;20396;-74
2023/06/07 07:40:47;;;;;;;13.60;7.43;;;;;;;;;;5058486;28;20404;-73
2023/06/07 07:43:13;;;;;;;11.80;7.53;;;;;;;;;;5058781;28;20412;-73
2023/06/07 07:45:38;;;;;;;12.60;7.40;;;;;;;;;;5058967;28;20390;-74
2023/06/07 07:48:05;;;;;;;12.00;8.60;;;;;;;;;;5059140;28;20401;-71
2023/06/07 07:50:31;;;;;;;11.70;8.40;;;;;;;;;;5059263;28;20757;-74
2023/06/07 07:52:57;;;;;;;13.17;8.57;;;;;;;;;;5059478;28;20833;-73
2023/06/07 07:55:23;;;;;;;11.23;8.13;;;;;;;;;;5059242;28;20495;-74
2023/06/07 07:57:50;;;;;;;13.60;8.20;;;;;;;;;;5059204;28;20409;-73
2023/06/07 08:00:16;;;;;;;14.00;9.30;;;;;;;;;;5058999;28;20991;-73
2023/06/07 08:02:43;;;;;;;20.90;8.60;;;;;;;;;;5059362;28;20394;-73
2023/06/07 08:05:09;;;;;;;17.03;9.00;;;;;;;;;;5059001;28;20427;-73
2023/06/07 08:07:35;;;;;;;13.17;9.70;;;;;;;;;;5058452;28;20382;-74
2023/06/07 08:10:01;;;;;;;16.60;8.60;;;;;;;;;;5058922;28;20419;-74
2023/06/07 08:12:27;;;;;;;15.90;9.07;;;;;;;;;;5058562;28;20461;-74
2023/06/07 08:14:53;;;;;;;11.20;8.20;;;;;;;;;;5059045;28;20781;-73
2023/06/07 08:17:20;;;;;;;11.63;7.60;;;;;;;;;;5059390;28;20883;-73
2023/06/07 08:19:46;;;;;;;20.33;8.80;;;;;;;;;;5058410;28;20474;-74
2023/06/07 08:22:12;;;;;;;13.33;8.30;;;;;;;;;;5058406;28;20416;-74
2023/06/07 08:24:38;;;;;;;12.57;8.10;;;;;;;;;;5058148;28;20420;-73
2023/06/07 08:27:05;;;;;;;11.13;8.40;;;;;;;;;;5058406;28;20419;-74
2023/06/07 08:29:31;;;;;;;13.90;7.73;;;;;;;;;;5058158;28;20374;-73
2023/06/07 08:31:57;;;;;;;12.63;7.67;;;;;;;;;;5058097;28;20834;-73
2023/06/07 08:34:27;;;;;;;13.23;7.73;;;;;;;;;;5057917;28;20412;-74
2023/06/07 08:36:53;;;;;;;14.23;9.40;;;;;;;;;;5058080;28;20423;-73
2023/06/07 08:39:20;;;;;;;18.60;8.47;;;;;;;;;;5058490;28;20419;-73
2023/06/07 08:41:46;;;;;;;15.00;8.53;;;;;;;;;;5058146;28;20459;-73
2023/06/07 08:44:12;;;;;;;14.43;8.70;;;;;;;;;;5057967;28;20759;-73
2023/06/07 08:46:38;;;;;;;13.47;7.80;;;;;;;;;;5057898;28;20409;-73
2023/06/07 08:49:05;;;;;;;15.03;8.00;;;;;;;;;;5058421;28;20404;-73
2023/06/07 08:51:33;;;;;;;9.47;8.37;;;;;;;;;;5057676;28;20415;-74
2023/06/07 08:54:02;;;;;;;10.17;8.00;;;;;;;;;;5058620;28;20803;-73
2023/06/07 08:56:31;;;;;;;15.27;9.47;;;;;;;;;;5057931;28;20423;-74
2023/06/07 08:58:57;;;;;;;13.93;7.80;;;;;;;;;;5058410;28;20514;-74
2023/06/07 09:01:23;;;;;;;9.67;7.83;;;;;;;;;;5057790;28;20401;-77
2023/06/07 09:03:52;;;;;;;13.20;9.10;;;;;;;;;;5057678;28;20411;-73
2023/06/07 09:06:20;;;;;;;11.93;7.87;;;;;;;;;;5057341;28;20404;-73
2023/06/07 09:08:46;;;;;;;12.80;9.63;;;;;;;;;;5057394;28;20495;-74
2023/06/07 09:11:12;;;;;;;11.50;8.90;;;;;;;;;;5057416;28;20435;-74
2023/06/07 09:13:38;;;;;;;12.57;8.83;;;;;;;;;;5057567;28;20464;-73
2023/06/07 09:16:04;;;;;;;14.93;8.60;;;;;;;;;;5057294;28;20807;-73
2023/06/07 09:18:43;;;;;;;10.40;8.30;;;;;;;;;;5057190;28;20409;-73
2023/06/07 09:21:26;;;;;;;9.80;8.80;;;;;;;;;;5057514;28;20408;-73
2023/06/07 09:23:52;;;;;;;9.80;8.23;;;;;;;;;;5057278;28;20420;-74
2023/06/07 09:26:20;;;;;;;15.87;8.07;;;;;;;;;;5057216;28;20400;-74
2023/06/07 09:28:47;;;;;;;14.50;8.07;;;;;;;;;;5056298;28;20420;-73
2023/06/07 09:31:13;;;;;;;11.10;8.73;;;;;;;;;;5056737;28;20413;-74
2023/06/07 09:33:39;;;;;;;13.73;9.60;;;;;;;;;;5055971;28;20480;-74
2023/06/07 09:36:07;;;;;;;9.43;7.50;;;;;;;;;;5056432;28;20787;-74
2023/06/07 09:38:34;;;;;;;14.70;8.03;;;;;;;;;;5056045;28;20411;-74
2023/06/07 09:41:00;;;;;;;12.13;8.10;;;;;;;;;;5055629;28;20400;-74
2023/06/07 09:43:27;;;;;;;9.43;7.80;;;;;;;;;;5055927;28;20502;-75
2023/06/07 09:45:56;;;;;;;10.60;8.10;;;;;;;;;;5055891;28;20931;-74
2023/06/07 09:48:23;;;;;;;14.73;7.60;;;;;;;;;;5055865;28;20766;-73
2023/06/07 09:50:56;;;;;;;9.47;7.50;;;;;;;;;;5055630;28;20457;-74
2023/06/07 09:53:22;;;;;;;9.60;7.40;;;;;;;;;;5056103;28;20455;-74
2023/06/07 09:55:48;;;;;;;11.57;8.30;;;;;;;;;;5056031;28;20491;-74
2023/06/07 09:58:18;;;;;;;8.23;7.40;;;;;;;;;;5056270;28;20408;-74
2023/06/07 10:00:45;;;;;;;15.97;8.80;;;;;;;;;;5055772;28;20405;-74
2023/06/07 10:03:12;;;;;;;10.73;8.20;;;;;;;;;;5055185;28;20438;-74
2023/06/07 10:05:38;;;;;;;10.40;7.70;;;;;;;;;;5055949;28;20408;-74
2023/06/07 10:08:05;;;;;;;14.63;9.37;;;;;;;;;;5054938;28;20424;-74
2023/06/07 10:10:32;;;;;;;9.80;8.20;;;;;;;;;;5055677;28;20430;-72
2023/06/07 10:12:59;;;;;;;13.20;9.20;;;;;;;;;;5055645;28;20482;-73
2023/06/07 10:15:25;;;;;;;12.27;8.03;;;;;;;;;;5055987;28;20405;-73
2023/06/07 10:17:51;;;;;;;10.70;7.90;;;;;;;;;;5055773;28;20411;-73
2023/06/07 10:20:38;;;;;;;9.17;7.63;;;;;;;;;;5056192;28;20491;-73
2023/06/07 10:23:05;;;;;;;11.27;8.17;;;;;;;;;;5051227;28;20435;-73
2023/06/07 10:25:34;;;;;;;10.40;7.43;;;;;;;;;;5055564;28;20462;-73
2023/06/07 10:28:01;;;;;;;10.43;7.40;;;;;;;;;;5055847;28;20404;-73
2023/06/07 10:30:28;;;;;;;11.67;7.80;;;;;;;;;;5055283;28;20419;-73
2023/06/07 10:32:54;;;;;;;9.77;7.97;;;;;;;;;;5055169;28;20536;-73
2023/06/07 10:35:20;;;;;;;11.30;8.30;;;;;;;;;;5056224;28;20412;-73
2023/06/07 10:37:53;;;;;;;9.70;8.67;;;;;;;;;;5055430;28;20499;-73
2023/06/07 10:40:19;;;;;;;9.20;8.23;;;;;;;;;;5055892;28;20408;-73
2023/06/07 10:42:46;;;;;;;12.43;8.60;;;;;;;;;;5055321;28;20412;-73
2023/06/07 10:45:16;;;;;;;10.23;8.43;;;;;;;;;;5056056;28;20515;-73
2023/06/07 10:47:43;;;;;;;12.70;8.30;;;;;;;;;;5055717;28;20434;-73
2023/06/07 10:50:32;;;;;;;14.40;8.73;;;;;;;;;;5056006;28;20400;-73
2023/06/07 10:52:59;;;;;;;14.33;9.73;;;;;;;;;;5055437;28;20495;-73
2023/06/07 10:55:26;;;;;;;17.90;10.40;;;;;;;;;;5055725;28;20411;-73
2023/06/07 10:57:53;;;;;;;21.67;12.80;;;;;;;;;;5055243;28;20489;-73
2023/06/07 11:00:33;;;;;;;19.27;10.63;;;;;;;;;;5055228;28;20855;-73
2023/06/07 11:03:05;;;;;;;17.87;10.10;;;;;;;;;;5055585;28;20428;-73
2023/06/07 11:05:51;;;;;;;17.27;11.30;;;;;;;;;;5055474;28;20499;-76
2023/06/07 11:08:30;;;;;;;15.67;10.67;;;;;;;;;;5055824;28;20415;-73
2023/06/07 11:10:58;;;;;;;14.63;9.40;;;;;;;;;;5055102;28;20423;-73
2023/06/07 11:13:39;;;;;;;15.20;10.80;;;;;;;;;;5054985;28;20558;-73
2023/06/07 11:16:21;;;;;;;16.23;11.30;;;;;;;;;;5058751;28;20400;-73
2023/06/07 11:18:53;;;;;;;18.90;11.80;;;;;;;;;;5059304;28;20400;-73
2023/06/07 11:21:19;;;;;;;11.70;10.50;;;;;;;;;;5058793;28;20458;-73
2023/06/07 11:23:45;;;;;;;14.40;10.73;;;;;;;;;;5058947;28;20495;-73
2023/06/07 11:26:13;;;;;;;14.67;11.00;;;;;;;;;;5058955;28;20404;-73
2023/06/07 11:28:39;;;;;;;17.83;11.77;;;;;;;;;;5058799;28;20404;-73
2023/06/07 11:31:10;;;;;;;18.93;12.70;;;;;;;;;;5059001;28;20482;-73
2023/06/07 11:33:36;;;;;;;14.13;12.30;;;;;;;;;;5058779;28;20471;-73
2023/06/07 11:36:04;;;;;;;19.53;12.20;;;;;;;;;;5059124;28;20435;-73
2023/06/07 11:38:31;;;;;;;16.40;12.40;;;;;;;;;;5058662;28;20577;-74
2023/06/07 11:40:57;;;;;;;26.67;15.80;;;;;;;;;;5058359;28;20418;-73
2023/06/07 11:43:24;;;;;;;19.70;14.40;;;;;;;;;;5057978;28;20408;-73
2023/06/07 11:45:50;;;;;;;16.20;14.23;;;;;;;;;;5059044;28;20416;-73
2023/06/07 11:48:17;;;;;;;24.87;15.77;;;;;;;;;;5058556;28;20829;-73
2023/06/07 11:50:43;;;;;;;27.27;16.47;;;;;;;;;;5058212;28;20404;-73
2023/06/07 11:53:09;;;;;;;17.47;15.50;;;;;;;;;;5058724;28;20813;-73
2023/06/07 11:55:36;;;;;;;17.93;15.67;;;;;;;;;;5058191;28;20408;-74
2023/06/07 11:58:03;;;;;;;31.43;17.70;;;;;;;;;;5058486;28;20826;-73
2023/06/07 12:00:33;;;;;;;18.27;16.30;;;;;;;;;;5058585;28;20403;-73
2023/06/07 12:02:59;;;;;;;22.57;18.03;;;;;;;;;;5057979;28;20787;-74
2023/06/07 12:05:34;;;;;;;22.00;18.43;;;;;;;;;;5058413;28;20543;-74
2023/06/07 12:08:03;;;;;;;21.77;19.43;;;;;;;;;;5058707;28;20412;-73
2023/06/07 12:10:29;;;;;;;22.90;18.60;;;;;;;;;;5057771;28;20420;-74
2023/06/07 12:13:10;;;;;;;22.03;19.73;;;;;;;;;;5057766;28;20502;-73
2023/06/07 12:15:54;;;;;;;32.17;24.63;;;;;;;;;;5057989;28;20754;-75
2023/06/07 12:18:27;;;;;;;30.90;25.23;;;;;;;;;;5058362;28;20396;-74
2023/06/07 12:21:03;;;;;;;29.27;26.20;;;;;;;;;;5057730;28;20408;-74
2023/06/07 12:23:29;;;;;;;25.97;22.90;;;;;;;;;;5057709;28;21006;-74
2023/06/07 12:26:08;;;;;;;22.90;20.33;;;;;;;;;;5058041;28;20404;-74
2023/06/07 12:28:35;;;;;;;24.50;21.90;;;;;;;;;;5058121;28;20415;-73
2023/06/07 12:31:01;;;;;;;28.63;23.70;;;;;;;;;;5057506;28;20530;-74
2023/06/07 12:33:27;;;;;;;26.10;23.40;;;;;;;;;;5057681;28;20494;-73
2023/06/07 12:35:53;;;;;;;23.30;20.70;;;;;;;;;;5057589;28;20405;-74
2023/06/07 12:38:23;;;;;;;24.23;21.33;;;;;;;;;;5057722;28;20458;-73
2023/06/07 12:40:49;;;;;;;22.07;19.77;;;;;;;;;;5057609;28;20409;-74
2023/06/07 12:43:15;;;;;;;24.07;21.73;;;;;;;;;;5057613;28;20416;-74
2023/06/07 12:45:41;;;;;;;24.63;22.13;;;;;;;;;;5056833;28;20957;-74
2023/06/07 12:48:07;;;;;;;25.87;23.10;;;;;;;;;;5057518;28;20412;-74
2023/06/07 12:50:33;;;;;;;26.90;24.00;;;;;;;;;;5057710;28;20816;-73
2023/06/07 12:52:59;;;;;;;24.50;21.97;;;;;;;;;;5057067;28;20483;-74
2023/06/07 12:55:26;;;;;;;24.40;21.70;;;;;;;;;;5057346;28;20415;-74
2023/06/07 12:57:52;;;;;;;26.37;23.40;;;;;;;;;;5056589;28;20428;-74
2023/06/07 13:00:18;;;;;;;24.60;21.80;;;;;;;;;;5057467;28;20786;-74
2023/06/07 13:02:44;;;;;;;26.73;23.90;;;;;;;;;;5056874;28;20764;-74
2023/06/07 13:05:11;;;;;;;24.60;22.07;;;;;;;;;;5057612;28;20839;-74
2023/06/07 13:07:38;;;;;;;23.73;21.07;;;;;;;;;;5056997;28;20424;-74
2023/06/07 13:10:04;;;;;;;23.17;19.67;;;;;;;;;;5057238;28;20407;-74
2023/06/07 13:12:30;;;;;;;23.80;21.30;;;;;;;;;;5056909;28;20960;-74
2023/06/07 13:14:57;;;;;;;24.17;21.67;;;;;;;;;;5056527;28;20415;-74
2023/06/07 13:17:23;;;;;;;22.07;19.70;;;;;;;;;;5057001;28;20723;-74
2023/06/07 13:19:49;;;;;;;25.07;22.23;;;;;;;;;;5056754;28;20404;-74
2023/06/07 13:22:15;;;;;;;24.33;21.93;;;;;;;;;;5056585;28;20487;-73
2023/06/07 13:24:42;;;;;;;27.77;24.80;;;;;;;;;;5056481;28;20400;-74
2023/06/07 13:27:09;;;;;;;27.80;24.20;;;;;;;;;;5056420;28;20408;-74
2023/06/07 13:29:35;;;;;;;30.07;27.00;;;;;;;;;;5055157;28;20427;-74
2023/06/07 13:32:01;;;;;;;30.60;27.40;;;;;;;;;;5055786;28;20455;-73
2023/06/07 13:34:27;;;;;;;31.87;28.60;;;;;;;;;;5056473;28;20427;-73
2023/06/07 13:36:55;;;;;;;32.67;29.40;;;;;;;;;;5055847;28;20407;-74
2023/06/07 13:39:21;;;;;;;32.17;28.97;;;;;;;;;;5056938;28;20495;-73
2023/06/07 13:41:47;;;;;;;31.03;27.43;;;;;;;;;;5056297;28;20403;-74
2023/06/07 13:44:14;;;;;;;29.80;26.90;;;;;;;;;;5056400;28;20407;-74
2023/06/07 13:46:40;;;;;;;34.10;30.03;;;;;;;;;;5056706;28;20412;-73
2023/06/07 13:49:06;;;;;;;34.73;29.77;;;;;;;;;;5055650;28;20465;-73
2023/06/07 13:51:35;;;;;;;32.53;29.40;;;;;;;;;;5056219;28;20495;-73
2023/06/07 13:54:02;;;;;;;40.40;29.60;;;;;;;;;;5055891;28;20502;-74
2023/06/07 13:56:28;;;;;;;33.00;29.60;;;;;;;;;;5055893;28;20421;-74
2023/06/07 13:58:57;;;;;;;35.00;30.57;;;;;;;;;;5055885;28;20415;-73
2023/06/07 14:01:23;;;;;;;32.27;28.97;;;;;;;;;;5056370;28;20454;-73
2023/06/07 14:03:49;;;;;;;28.17;25.40;;;;;;;;;;5055685;28;20404;-74
2023/06/07 14:06:16;;;;;;;23.93;21.50;;;;;;;;;;5056229;28;20379;-73
2023/06/07 14:08:42;;;;;;;22.23;19.93;;;;;;;;;;5055836;28;20391;-76
2023/06/07 14:11:08;;;;;;;20.77;18.73;;;;;;;;;;5056592;28;20411;-72
2023/06/07 14:13:35;;;;;;;19.60;17.60;;;;;;;;;;5055832;28;20471;-72
2023/06/07 14:16:01;;;;;;;24.20;17.30;;;;;;;;;;5055997;28;20404;-72
2023/06/07 14:18:27;;;;;;;20.03;18.00;;;;;;;;;;5055414;28;20456;-72
2023/06/07 14:20:53;;;;;;;19.37;16.20;;;;;;;;;;5055586;28;20400;-72
2023/06/07 14:23:19;;;;;;;16.37;14.67;;;;;;;;;;5056036;28;20470;-72
2023/06/07 14:25:45;;;;;;;17.97;15.87;;;;;;;;;;5055425;28;20423;-73
2023/06/07 14:28:11;;;;;;;18.80;16.90;;;;;;;;;;5056166;28;20405;-72
2023/06/07 14:30:37;;;;;;;18.03;16.27;;;;;;;;;;5055037;28;20466;-78